createdAt,value
2018-08-11T00:02:21.761Z,2.00
2018-08-11T00:05:55.031Z,2.37
2018-08-11T00:09:28.264Z,1.83
2018-08-11T00:13:01.514Z,2.57
2018-08-11T00:16:34.764Z,2.40
2018-08-11T00:20:10.550Z,2.17
2018-08-11T00:23:43.781Z,2.40
2018-08-11T00:27:17.024Z,3.00
2018-08-11T00:30:50.271Z,2.83
2018-08-11T00:34:23.528Z,2.50
2018-08-11T00:38:02.315Z,2.40
2018-08-11T00:41:35.798Z,3.43
2018-08-11T00:45:10.689Z,2.67
2018-08-11T00:48:43.931Z,3.17
2018-08-11T00:52:17.172Z,3.10
2018-08-11T00:55:50.421Z,2.90
2018-08-11T00:59:23.669Z,2.90
2018-08-11T01:02:56.904Z,3.87
2018-08-11T01:06:30.138Z,3.27
2018-08-11T01:10:03.404Z,3.00
2018-08-11T01:13:36.659Z,3.70
2018-08-11T01:17:09.938Z,4.17
2018-08-11T01:20:43.175Z,4.17
2018-08-11T01:24:16.441Z,4.40
2018-08-11T01:27:49.710Z,4.70
2018-08-11T01:31:22.962Z,4.57
2018-08-11T01:34:56.303Z,4.30
2018-08-11T01:38:29.565Z,3.60
2018-08-11T01:42:02.838Z,3.70
2018-08-11T01:45:36.099Z,4.30
2018-08-11T01:49:09.345Z,4.40
2018-08-11T01:52:44.881Z,4.50
2018-08-11T01:56:18.112Z,4.57
2018-08-11T01:59:51.361Z,5.30
2018-08-11T02:03:24.628Z,4.67
2018-08-11T02:06:57.871Z,5.27
2018-08-11T02:10:31.126Z,5.40
2018-08-11T02:14:04.409Z,5.90
2018-08-11T02:17:37.669Z,7.17
2018-08-11T02:21:10.904Z,6.90
2018-08-11T02:24:44.254Z,8.03
2018-08-11T02:28:17.406Z,6.57
2018-08-11T02:31:50.698Z,7.00
2018-08-11T02:35:23.953Z,7.63
2018-08-11T02:38:57.208Z,8.60
2018-08-11T02:42:30.464Z,8.60
2018-08-11T02:46:03.780Z,7.77
2018-08-11T02:49:37.013Z,8.43
2018-08-11T02:53:10.249Z,9.17
2018-08-11T02:56:43.497Z,8.83
2018-08-11T03:00:16.745Z,8.53
2018-08-11T03:03:49.978Z,6.17
2018-08-11T03:07:23.224Z,7.20
2018-08-11T03:10:56.467Z,7.80
2018-08-11T03:14:29.729Z,7.00
2018-08-11T03:18:02.960Z,6.73
2018-08-11T03:21:36.229Z,8.80
2018-08-11T03:25:10.493Z,7.50
2018-08-11T03:28:43.737Z,7.47
2018-08-11T03:32:16.960Z,7.50
2018-08-11T03:35:50.209Z,9.30
2018-08-11T03:39:23.467Z,7.70
2018-08-11T03:42:56.705Z,9.30
2018-08-11T03:46:29.933Z,8.40
2018-08-11T03:50:04.151Z,9.43
2018-08-11T03:53:37.394Z,8.33
2018-08-11T03:57:10.625Z,8.60
2018-08-11T04:00:43.859Z,8.13
2018-08-11T04:04:17.081Z,8.00
2018-08-11T04:07:50.319Z,8.73
2018-08-11T04:11:23.565Z,10.13
2018-08-11T04:14:56.862Z,9.77
2018-08-11T04:18:30.089Z,7.53
2018-08-11T04:22:03.329Z,8.20
2018-08-11T04:25:36.554Z,9.07
2018-08-11T04:29:10.106Z,8.53
2018-08-11T04:32:43.343Z,8.43
2018-08-11T04:36:16.576Z,9.77
2018-08-11T04:39:49.888Z,8.80
2018-08-11T04:43:23.109Z,8.30
2018-08-11T04:46:56.387Z,8.70
2018-08-11T04:50:29.601Z,8.10
2018-08-11T04:54:02.852Z,8.67
2018-08-11T04:57:36.179Z,8.13
2018-08-11T05:01:09.460Z,7.83
2018-08-11T05:04:42.764Z,7.83
2018-08-11T05:08:15.989Z,7.30
2018-08-11T05:11:49.280Z,7.47
2018-08-11T05:15:22.514Z,6.27
2018-08-11T05:18:55.744Z,6.40
2018-08-11T05:22:28.994Z,6.07
2018-08-11T05:26:02.209Z,7.37
2018-08-11T05:29:35.461Z,7.10
2018-08-11T05:33:08.756Z,6.77
2018-08-11T05:36:41.982Z,6.87
2018-08-11T05:40:15.248Z,7.47
2018-08-11T05:43:48.565Z,7.97
2018-08-11T05:47:22.827Z,7.43
2018-08-11T05:50:56.281Z,6.53
2018-08-11T05:54:29.658Z,6.77
2018-08-11T05:58:02.896Z,6.20
2018-08-11T06:01:36.142Z,8.30
2018-08-11T06:05:09.408Z,6.53
2018-08-11T06:08:42.739Z,6.80
2018-08-11T06:12:15.994Z,5.90
2018-08-11T06:15:49.231Z,5.67
2018-08-11T06:19:22.551Z,5.03
2018-08-11T06:22:55.801Z,4.30
2018-08-11T06:26:29.033Z,4.17
2018-08-11T06:30:02.257Z,3.43
2018-08-11T06:33:35.575Z,3.47
2018-08-11T06:37:08.832Z,2.93
2018-08-11T06:40:42.124Z,3.07
2018-08-11T06:44:15.304Z,2.60
2018-08-11T06:47:48.573Z,1.80
2018-08-11T06:51:21.813Z,2.20
2018-08-11T06:54:55.057Z,1.70
2018-08-11T06:58:28.300Z,1.67
2018-08-11T07:02:02.278Z,1.50
2018-08-11T07:05:35.516Z,1.77
2018-08-11T07:09:10.307Z,2.30
2018-08-11T07:12:43.571Z,1.97
2018-08-11T07:16:16.989Z,1.70
2018-08-11T07:19:50.308Z,2.10
2018-08-11T07:23:23.656Z,2.10
2018-08-11T07:26:56.985Z,1.53
2018-08-11T07:30:30.268Z,1.40
2018-08-11T07:34:03.625Z,2.63
2018-08-11T07:37:36.973Z,1.60
2018-08-11T07:41:10.246Z,1.40
2018-08-11T07:44:43.482Z,1.57
2018-08-11T07:48:16.746Z,1.40
2018-08-11T07:51:49.994Z,1.43
2018-08-11T07:55:23.281Z,1.40
2018-08-11T07:58:56.509Z,1.50
2018-08-11T08:02:29.740Z,1.67
2018-08-11T08:06:02.967Z,1.40
2018-08-11T08:09:36.218Z,1.77
2018-08-11T08:13:09.472Z,1.70
2018-08-11T08:16:42.693Z,1.10
2018-08-11T08:20:15.949Z,1.33
2018-08-11T08:23:49.216Z,1.73
2018-08-11T08:27:22.451Z,1.90
2018-08-11T08:30:55.704Z,1.53
2018-08-11T08:34:28.944Z,2.00
2018-08-11T08:38:02.188Z,2.10
2018-08-11T08:41:35.416Z,1.80
2018-08-11T08:45:10.149Z,1.97
2018-08-11T08:48:43.392Z,1.67
2018-08-11T08:52:16.611Z,1.87
2018-08-11T08:55:49.871Z,1.70
2018-08-11T08:59:23.097Z,1.90
2018-08-11T09:02:56.340Z,2.23
2018-08-11T09:06:29.576Z,1.90
2018-08-11T09:10:02.828Z,1.27
2018-08-11T09:13:36.085Z,1.50
2018-08-11T09:17:09.295Z,1.30
2018-08-11T09:20:42.545Z,1.40
2018-08-11T09:24:15.794Z,1.07
2018-08-11T09:27:49.048Z,1.50
2018-08-11T09:31:22.299Z,1.13
2018-08-11T09:34:55.543Z,1.73
2018-08-11T09:38:28.838Z,1.90
2018-08-11T09:42:02.058Z,1.77
2018-08-11T09:45:35.355Z,1.53
2018-08-11T09:49:08.568Z,1.77
2018-08-11T09:52:41.792Z,1.40
2018-08-11T09:56:15.032Z,1.67
2018-08-11T09:59:48.272Z,2.20
2018-08-11T10:03:21.797Z,1.67
2018-08-11T10:06:55.076Z,1.73
2018-08-11T10:10:28.317Z,1.90
2018-08-11T10:14:01.553Z,1.53
2018-08-11T10:17:34.841Z,1.87
2018-08-11T10:21:08.218Z,1.63
2018-08-11T10:24:41.497Z,1.50
2018-08-11T10:28:14.740Z,1.60
2018-08-11T10:31:48.107Z,2.17
2018-08-11T10:35:21.388Z,1.83
2018-08-11T10:38:54.728Z,1.60
2018-08-11T10:42:27.967Z,1.93
2018-08-11T10:46:01.216Z,2.10
2018-08-11T10:49:34.704Z,1.63
2018-08-11T10:53:07.956Z,1.87
2018-08-11T10:56:41.217Z,1.80
2018-08-11T11:00:14.452Z,1.80
2018-08-11T11:03:47.724Z,1.70
2018-08-11T11:07:20.959Z,1.73
2018-08-11T11:10:54.205Z,1.93
2018-08-11T11:14:27.500Z,1.77
2018-08-11T11:18:00.996Z,1.87
2018-08-11T11:21:34.229Z,1.80
2018-08-11T11:25:07.571Z,1.70
2018-08-11T11:28:40.812Z,1.80
2018-08-11T11:32:14.088Z,1.90
2018-08-11T11:35:47.774Z,1.73
2018-08-11T11:39:21.027Z,2.30
2018-08-11T11:42:54.296Z,1.70
2018-08-11T11:46:27.557Z,1.97
2018-08-11T11:50:00.827Z,2.10
2018-08-11T11:53:34.124Z,1.60
2018-08-11T11:57:07.677Z,1.60
2018-08-11T12:00:40.976Z,1.80
2018-08-11T12:04:14.210Z,2.10
2018-08-11T12:07:47.474Z,1.80
2018-08-11T12:11:20.696Z,1.60
2018-08-11T12:14:53.925Z,1.23
2018-08-11T12:18:27.181Z,1.93
2018-08-11T12:22:00.442Z,1.93
2018-08-11T12:25:33.684Z,1.63
2018-08-11T12:29:07.271Z,1.80
2018-08-11T12:32:40.898Z,2.13
2018-08-11T12:36:14.169Z,1.63
2018-08-11T12:39:47.408Z,2.20
2018-08-11T12:43:20.636Z,1.90
2018-08-11T12:46:53.892Z,1.70
2018-08-11T12:50:27.139Z,1.63
2018-08-11T12:54:00.391Z,2.40
2018-08-11T12:57:33.632Z,1.60
2018-08-11T13:01:06.880Z,1.87
2018-08-11T13:04:40.470Z,2.10
2018-08-11T13:08:13.784Z,1.47
2018-08-11T13:11:47.019Z,2.00
2018-08-11T13:15:20.252Z,1.50
2018-08-11T13:18:53.571Z,1.90
2018-08-11T13:22:26.796Z,1.50
2018-08-11T13:26:00.531Z,1.37
2018-08-11T13:29:33.784Z,2.00
2018-08-11T13:33:07.088Z,1.10
2018-08-11T13:36:40.341Z,1.53
2018-08-11T13:40:13.584Z,1.40
2018-08-11T13:43:46.825Z,1.63
2018-08-11T13:47:20.136Z,1.40
2018-08-11T13:50:53.384Z,1.60
2018-08-11T13:54:27.592Z,1.60
2018-08-11T13:58:00.773Z,1.63
2018-08-11T14:01:34.060Z,1.73
2018-08-11T14:05:07.381Z,1.60
2018-08-11T14:08:40.644Z,1.70
2018-08-11T14:12:13.871Z,1.40
2018-08-11T14:15:47.097Z,1.37
2018-08-11T14:19:20.385Z,1.40
2018-08-11T14:22:53.590Z,1.20
2018-08-11T14:26:26.848Z,1.80
2018-08-11T14:30:00.101Z,1.60
2018-08-11T14:33:33.341Z,1.60
2018-08-11T14:37:06.618Z,1.67
2018-08-11T14:40:39.876Z,1.80
2018-08-11T14:44:13.126Z,1.63
2018-08-11T14:47:46.398Z,1.73
2018-08-11T14:51:20.192Z,1.80
2018-08-11T14:54:53.433Z,1.87
2018-08-11T14:58:26.662Z,1.70
2018-08-11T15:01:59.904Z,1.60
2018-08-11T15:05:33.175Z,1.63
2018-08-11T15:09:10.043Z,1.90
2018-08-11T15:12:43.267Z,2.13
2018-08-11T15:16:16.601Z,1.53
2018-08-11T15:19:49.743Z,2.37
2018-08-11T15:23:22.988Z,2.10
2018-08-11T15:26:56.212Z,2.40
2018-08-11T15:30:29.482Z,1.77
2018-08-11T15:34:02.712Z,2.27
2018-08-11T15:37:35.941Z,2.20
2018-08-11T15:41:09.178Z,2.40
2018-08-11T15:44:42.412Z,1.97
2018-08-11T15:48:15.636Z,1.73
2018-08-11T15:51:48.868Z,2.40
2018-08-11T15:55:22.101Z,2.30
2018-08-11T15:58:55.353Z,1.73
2018-08-11T16:02:28.597Z,1.63
2018-08-11T16:06:02.056Z,1.60
2018-08-11T16:09:35.301Z,2.40
2018-08-11T16:13:08.528Z,2.03
2018-08-11T16:16:41.765Z,1.70
2018-08-11T16:20:15.079Z,2.00
2018-08-11T16:23:48.364Z,1.70
2018-08-11T16:27:21.593Z,2.27
2018-08-11T16:30:54.873Z,2.00
2018-08-11T16:34:28.112Z,1.80
2018-08-11T16:38:01.368Z,1.70
2018-08-11T16:41:34.589Z,2.47
2018-08-11T16:45:07.894Z,2.57
2018-08-11T16:48:41.197Z,2.30
2018-08-11T16:52:14.436Z,2.63
2018-08-11T16:55:47.678Z,1.90
2018-08-11T16:59:20.945Z,1.90
2018-08-11T17:02:54.180Z,2.43
2018-08-11T17:06:27.428Z,2.50
2018-08-11T17:10:00.689Z,1.83
2018-08-11T17:13:33.924Z,2.33
2018-08-11T17:17:07.184Z,1.77
2018-08-11T17:20:40.425Z,1.93
2018-08-11T17:24:13.689Z,2.40
2018-08-11T17:27:46.950Z,2.00
2018-08-11T17:31:20.214Z,1.67
2018-08-11T17:34:53.483Z,2.10
2018-08-11T17:38:26.764Z,1.80
2018-08-11T17:42:00.004Z,1.70
2018-08-11T17:45:33.524Z,2.00
2018-08-11T17:49:06.805Z,1.77
2018-08-11T17:52:40.032Z,2.70
2018-08-11T17:56:13.277Z,2.40
2018-08-11T17:59:46.535Z,1.57
2018-08-11T18:03:19.752Z,2.10
2018-08-11T18:06:53.015Z,2.00
2018-08-11T18:10:26.288Z,1.70
2018-08-11T18:13:59.540Z,1.93
2018-08-11T18:17:32.844Z,1.90
2018-08-11T18:21:06.120Z,1.83
2018-08-11T18:24:39.363Z,2.70
2018-08-11T18:28:12.596Z,1.90
2018-08-11T18:31:45.828Z,1.97
2018-08-11T18:35:19.081Z,2.07
2018-08-11T18:38:52.353Z,2.10
2018-08-11T18:42:25.590Z,2.00
2018-08-11T18:45:58.811Z,1.97
2018-08-11T18:49:32.049Z,2.07
2018-08-11T18:53:05.267Z,2.50
2018-08-11T18:56:38.509Z,2.00
2018-08-11T19:00:15.801Z,2.10
2018-08-11T19:03:49.068Z,2.23
2018-08-11T19:07:22.305Z,2.47
2018-08-11T19:10:55.552Z,2.40
2018-08-11T19:14:28.777Z,2.30
2018-08-11T19:18:02.004Z,2.97
2018-08-11T19:21:35.338Z,2.67
2018-08-11T19:25:09.767Z,2.93
2018-08-11T19:28:43.004Z,3.30
2018-08-11T19:32:17.056Z,3.13
2018-08-11T19:35:51.204Z,2.23
2018-08-11T19:39:24.472Z,3.60
2018-08-11T19:42:57.712Z,3.00
2018-08-11T19:46:30.968Z,2.43
2018-08-11T19:50:04.704Z,2.57
2018-08-11T19:53:38.018Z,3.13
2018-08-11T19:57:11.286Z,3.20
2018-08-11T20:00:44.528Z,4.30
2018-08-11T20:04:17.800Z,3.40
2018-08-11T20:07:51.087Z,4.20
2018-08-11T20:11:24.323Z,4.17
2018-08-11T20:14:57.561Z,4.00
2018-08-11T20:18:31.542Z,3.60
2018-08-11T20:22:04.988Z,3.97
2018-08-11T20:25:38.281Z,4.77
2018-08-11T20:29:11.464Z,4.17
2018-08-11T20:32:44.712Z,3.70
2018-08-11T20:36:19.211Z,3.70
2018-08-11T20:39:52.454Z,3.70
2018-08-11T20:43:25.673Z,3.10
2018-08-11T20:46:59.269Z,3.80
2018-08-11T20:50:32.567Z,3.47
2018-08-11T20:54:05.809Z,3.90
2018-08-11T20:57:39.076Z,4.60
2018-08-11T21:01:12.326Z,4.07
2018-08-11T21:04:46.188Z,4.47
2018-08-11T21:08:19.453Z,3.60
2018-08-11T21:11:52.689Z,3.97
2018-08-11T21:15:25.984Z,3.90
2018-08-11T21:18:59.179Z,3.70
2018-08-11T21:22:32.397Z,3.30
2018-08-11T21:26:05.716Z,3.83
2018-08-11T21:29:38.949Z,4.03
2018-08-11T21:33:12.180Z,3.23
2018-08-11T21:36:45.493Z,3.20
2018-08-11T21:40:18.764Z,3.40
2018-08-11T21:43:52.812Z,3.63
2018-08-11T21:47:26.033Z,3.63
2018-08-11T21:50:59.272Z,3.23
2018-08-11T21:54:32.516Z,4.00
2018-08-11T21:58:05.797Z,2.57
2018-08-11T22:01:39.045Z,4.10
2018-08-11T22:05:12.295Z,4.17
2018-08-11T22:08:45.524Z,3.67
2018-08-11T22:12:18.761Z,4.03
2018-08-11T22:15:52.001Z,3.30
2018-08-11T22:19:25.223Z,3.90
2018-08-11T22:22:58.444Z,3.70
2018-08-11T22:26:31.700Z,4.10
2018-08-11T22:30:05.637Z,4.30
2018-08-11T22:33:38.869Z,5.20
2018-08-11T22:37:12.108Z,4.43
2018-08-11T22:40:45.360Z,4.70
2018-08-11T22:44:18.601Z,3.70
2018-08-11T22:47:51.830Z,3.60
2018-08-11T22:51:25.084Z,4.00
2018-08-11T22:54:58.320Z,4.20
2018-08-11T22:58:31.558Z,3.97
2018-08-11T23:02:04.813Z,4.40
2018-08-11T23:05:38.065Z,4.63
2018-08-11T23:09:11.293Z,4.07
2018-08-11T23:12:45.316Z,4.30
2018-08-11T23:16:18.576Z,4.90
2018-08-11T23:19:51.820Z,4.20
2018-08-11T23:23:25.076Z,4.23
2018-08-11T23:26:58.331Z,4.60
2018-08-11T23:30:31.576Z,4.40
2018-08-11T23:34:04.817Z,4.60
2018-08-11T23:37:38.119Z,3.90
2018-08-11T23:41:11.348Z,4.13
2018-08-11T23:44:44.584Z,3.70
2018-08-11T23:48:17.807Z,3.50
2018-08-11T23:51:51.080Z,3.27
2018-08-11T23:55:24.357Z,3.07
2018-08-11T23:58:57.592Z,3.00
